sensor_id;sensor_type;location;lat;lon;timestamp;temperature;humidity
45343;DHT22;31077;50.872;4.352;2023-01-23T00:00:30;22.80;33.60
45343;DHT22;31077;50.872;4.352;2023-01-23T00:02:56;22.80;33.70
45343;DHT22;31077;50.872;4.352;2023-01-23T00:05:21;22.80;33.80
45343;DHT22;31077;50.872;4.352;2023-01-23T00:07:47;22.80;33.90
45343;DHT22;31077;50.872;4.352;2023-01-23T00:10:13;22.80;34.00
45343;DHT22;31077;50.872;4.352;2023-01-23T00:12:45;22.90;34.00
45343;DHT22;31077;50.872;4.352;2023-01-23T00:15:11;22.80;34.00
45343;DHT22;31077;50.872;4.352;2023-01-23T00:17:38;22.90;34.00
45343;DHT22;31077;50.872;4.352;2023-01-23T00:20:07;22.90;34.00
45343;DHT22;31077;50.872;4.352;2023-01-23T00:22:33;22.90;34.00
45343;DHT22;31077;50.872;4.352;2023-01-23T00:24:59;22.90;34.10
45343;DHT22;31077;50.872;4.352;2023-01-23T00:27:25;22.90;34.00
45343;DHT22;31077;50.872;4.352;2023-01-23T00:29:54;22.90;34.10
45343;DHT22;31077;50.872;4.352;2023-01-23T00:32:20;22.90;34.20
45343;DHT22;31077;50.872;4.352;2023-01-23T00:34:46;22.90;34.20
45343;DHT22;31077;50.872;4.352;2023-01-23T00:37:12;23.00;34.20
45343;DHT22;31077;50.872;4.352;2023-01-23T00:39:39;23.00;34.20
45343;DHT22;31077;50.872;4.352;2023-01-23T00:42:05;23.00;34.30
45343;DHT22;31077;50.872;4.352;2023-01-23T00:44:31;23.00;34.20
45343;DHT22;31077;50.872;4.352;2023-01-23T00:46:57;23.00;34.30
45343;DHT22;31077;50.872;4.352;2023-01-23T00:49:23;23.00;34.20
45343;DHT22;31077;50.872;4.352;2023-01-23T00:51:50;23.00;34.10
45343;DHT22;31077;50.872;4.352;2023-01-23T00:54:16;23.00;34.10
45343;DHT22;31077;50.872;4.352;2023-01-23T00:56:44;23.00;34.60
45343;DHT22;31077;50.872;4.352;2023-01-23T00:59:10;23.00;34.40
45343;DHT22;31077;50.872;4.352;2023-01-23T01:01:36;23.00;34.40
45343;DHT22;31077;50.872;4.352;2023-01-23T01:04:02;23.00;34.20
45343;DHT22;31077;50.872;4.352;2023-01-23T01:06:27;23.00;34.00
45343;DHT22;31077;50.872;4.352;2023-01-23T01:08:54;23.00;33.80
45343;DHT22;31077;50.872;4.352;2023-01-23T01:11:21;23.00;33.80
45343;DHT22;31077;50.872;4.352;2023-01-23T01:13:47;23.00;33.90
45343;DHT22;31077;50.872;4.352;2023-01-23T01:16:13;23.00;33.90
45343;DHT22;31077;50.872;4.352;2023-01-23T01:18:39;23.00;33.80
45343;DHT22;31077;50.872;4.352;2023-01-23T01:21:11;23.00;33.80
45343;DHT22;31077;50.872;4.352;2023-01-23T01:23:37;23.00;33.80
45343;DHT22;31077;50.872;4.352;2023-01-23T01:26:04;23.00;33.60
45343;DHT22;31077;50.872;4.352;2023-01-23T01:28:30;23.10;33.60
45343;DHT22;31077;50.872;4.352;2023-01-23T01:31:02;23.10;33.50
45343;DHT22;31077;50.872;4.352;2023-01-23T01:33:28;23.00;33.40
45343;DHT22;31077;50.872;4.352;2023-01-23T01:35:54;23.10;33.40
45343;DHT22;31077;50.872;4.352;2023-01-23T01:38:22;23.10;33.40
45343;DHT22;31077;50.872;4.352;2023-01-23T01:40:48;23.10;33.30
45343;DHT22;31077;50.872;4.352;2023-01-23T01:43:23;23.10;33.30
45343;DHT22;31077;50.872;4.352;2023-01-23T01:48:49;23.10;33.10
45343;DHT22;31077;50.872;4.352;2023-01-23T01:53:42;23.10;33.00
45343;DHT22;31077;50.872;4.352;2023-01-23T01:56:11;23.10;32.90
45343;DHT22;31077;50.872;4.352;2023-01-23T01:58:39;23.10;32.90
45343;DHT22;31077;50.872;4.352;2023-01-23T02:01:07;23.10;32.90
45343;DHT22;31077;50.872;4.352;2023-01-23T02:03:33;23.10;32.90
45343;DHT22;31077;50.872;4.352;2023-01-23T02:05:59;23.10;33.00
45343;DHT22;31077;50.872;4.352;2023-01-23T02:08:49;23.10;32.90
45343;DHT22;31077;50.872;4.352;2023-01-23T02:11:17;23.10;33.10
45343;DHT22;31077;50.872;4.352;2023-01-23T02:13:43;23.10;33.10
45343;DHT22;31077;50.872;4.352;2023-01-23T02:16:20;23.10;33.00
45343;DHT22;31077;50.872;4.352;2023-01-23T02:18:49;23.10;32.80
45343;DHT22;31077;50.872;4.352;2023-01-23T02:21:20;23.10;32.90
45343;DHT22;31077;50.872;4.352;2023-01-23T02:26:42;23.10;33.10
45343;DHT22;31077;50.872;4.352;2023-01-23T02:29:09;23.20;33.00
45343;DHT22;31077;50.872;4.352;2023-01-23T02:31:35;23.20;33.10
45343;DHT22;31077;50.872;4.352;2023-01-23T02:34:02;23.10;33.20
45343;DHT22;31077;50.872;4.352;2023-01-23T02:36:31;23.20;33.10
45343;DHT22;31077;50.872;4.352;2023-01-23T02:41:33;23.20;33.20
45343;DHT22;31077;50.872;4.352;2023-01-23T02:44:04;23.20;33.10
45343;DHT22;31077;50.872;4.352;2023-01-23T02:46:31;23.20;33.10
45343;DHT22;31077;50.872;4.352;2023-01-23T02:48:57;23.10;33.10
45343;DHT22;31077;50.872;4.352;2023-01-23T02:51:23;23.20;33.00
45343;DHT22;31077;50.872;4.352;2023-01-23T02:53:49;23.10;33.00
45343;DHT22;31077;50.872;4.352;2023-01-23T02:56:15;24.00;33.50
45343;DHT22;31077;50.872;4.352;2023-01-23T02:58:41;23.10;32.90
45343;DHT22;31077;50.872;4.352;2023-01-23T03:01:26;23.20;32.90
45343;DHT22;31077;50.872;4.352;2023-01-23T03:03:53;23.10;32.90
45343;DHT22;31077;50.872;4.352;2023-01-23T03:06:21;23.20;32.90
45343;DHT22;31077;50.872;4.352;2023-01-23T03:08:47;23.20;32.90
45343;DHT22;31077;50.872;4.352;2023-01-23T03:11:16;23.20;32.90
45343;DHT22;31077;50.872;4.352;2023-01-23T03:13:42;23.10;32.90
45343;DHT22;31077;50.872;4.352;2023-01-23T03:16:07;23.20;32.90
45343;DHT22;31077;50.872;4.352;2023-01-23T03:18:34;23.10;32.80
45343;DHT22;31077;50.872;4.352;2023-01-23T03:21:03;23.20;32.70
45343;DHT22;31077;50.872;4.352;2023-01-23T03:23:30;23.10;32.80
45343;DHT22;31077;50.872;4.352;2023-01-23T03:25:56;23.20;32.90
45343;DHT22;31077;50.872;4.352;2023-01-23T03:28:25;23.10;32.80
45343;DHT22;31077;50.872;4.352;2023-01-23T03:31:11;23.20;32.80
45343;DHT22;31077;50.872;4.352;2023-01-23T03:33:38;23.20;32.80
45343;DHT22;31077;50.872;4.352;2023-01-23T03:36:07;23.20;32.80
45343;DHT22;31077;50.872;4.352;2023-01-23T03:38:33;23.10;32.70
45343;DHT22;31077;50.872;4.352;2023-01-23T03:40:58;23.10;32.70
45343;DHT22;31077;50.872;4.352;2023-01-23T03:43:43;23.20;32.70
45343;DHT22;31077;50.872;4.352;2023-01-23T03:46:09;23.20;33.40
45343;DHT22;31077;50.872;4.352;2023-01-23T03:48:34;23.20;32.70
45343;DHT22;31077;50.872;4.352;2023-01-23T03:51:00;23.20;32.70
45343;DHT22;31077;50.872;4.352;2023-01-23T03:53:26;23.10;32.60
45343;DHT22;31077;50.872;4.352;2023-01-23T03:55:55;23.20;32.60
45343;DHT22;31077;50.872;4.352;2023-01-23T03:58:24;23.10;32.60
45343;DHT22;31077;50.872;4.352;2023-01-23T04:00:49;23.20;32.60
45343;DHT22;31077;50.872;4.352;2023-01-23T04:03:15;23.10;32.50
45343;DHT22;31077;50.872;4.352;2023-01-23T04:05:41;23.10;32.50
45343;DHT22;31077;50.872;4.352;2023-01-23T04:08:06;23.10;32.60
45343;DHT22;31077;50.872;4.352;2023-01-23T04:10:32;23.10;32.60
45343;DHT22;31077;50.872;4.352;2023-01-23T04:12:58;23.20;32.60
45343;DHT22;31077;50.872;4.352;2023-01-23T04:15:26;23.20;32.60
45343;DHT22;31077;50.872;4.352;2023-01-23T04:17:52;23.20;32.60
45343;DHT22;31077;50.872;4.352;2023-01-23T04:20:18;23.10;32.50
45343;DHT22;31077;50.872;4.352;2023-01-23T04:22:43;23.10;32.50
45343;DHT22;31077;50.872;4.352;2023-01-23T04:25:18;23.20;32.60
45343;DHT22;31077;50.872;4.352;2023-01-23T04:27:44;23.10;32.50
45343;DHT22;31077;50.872;4.352;2023-01-23T04:30:12;23.10;32.50
45343;DHT22;31077;50.872;4.352;2023-01-23T04:32:38;23.20;32.40
45343;DHT22;31077;50.872;4.352;2023-01-23T04:35:04;23.10;32.40
45343;DHT22;31077;50.872;4.352;2023-01-23T04:37:30;23.20;32.50
45343;DHT22;31077;50.872;4.352;2023-01-23T04:39:56;23.10;32.40
45343;DHT22;31077;50.872;4.352;2023-01-23T04:42:21;23.10;32.40
45343;DHT22;31077;50.872;4.352;2023-01-23T04:44:47;23.10;32.40
45343;DHT22;31077;50.872;4.352;2023-01-23T04:47:13;23.10;32.40
45343;DHT22;31077;50.872;4.352;2023-01-23T04:49:38;23.20;32.40
45343;DHT22;31077;50.872;4.352;2023-01-23T04:52:04;23.10;32.40
45343;DHT22;31077;50.872;4.352;2023-01-23T04:54:30;23.20;32.40
45343;DHT22;31077;50.872;4.352;2023-01-23T04:56:56;23.10;32.40
45343;DHT22;31077;50.872;4.352;2023-01-23T04:59:21;23.10;32.40
45343;DHT22;31077;50.872;4.352;2023-01-23T05:01:47;23.20;32.50
45343;DHT22;31077;50.872;4.352;2023-01-23T05:04:13;23.10;32.50
45343;DHT22;31077;50.872;4.352;2023-01-23T05:06:39;23.10;32.50
45343;DHT22;31077;50.872;4.352;2023-01-23T05:09:05;23.20;32.40
45343;DHT22;31077;50.872;4.352;2023-01-23T05:11:31;23.20;32.50
45343;DHT22;31077;50.872;4.352;2023-01-23T05:13:57;21.10;31.50
45343;DHT22;31077;50.872;4.352;2023-01-23T05:16:22;23.10;32.60
45343;DHT22;31077;50.872;4.352;2023-01-23T05:18:48;23.10;32.60
45343;DHT22;31077;50.872;4.352;2023-01-23T05:21:14;23.20;32.60
45343;DHT22;31077;50.872;4.352;2023-01-23T05:23:40;23.60;32.90
45343;DHT22;31077;50.872;4.352;2023-01-23T05:26:06;23.10;32.60
45343;DHT22;31077;50.872;4.352;2023-01-23T05:28:31;23.10;32.70
45343;DHT22;31077;50.872;4.352;2023-01-23T20:04:17;19.00;36.40
45343;DHT22;31077;50.872;4.352;2023-01-23T20:06:44;18.90;37.20
45343;DHT22;31077;50.872;4.352;2023-01-23T20:09:12;19.00;37.60
45343;DHT22;31077;50.872;4.352;2023-01-23T20:11:42;19.30;37.40
45343;DHT22;31077;50.872;4.352;2023-01-23T20:14:09;19.60;37.10
45343;DHT22;31077;50.872;4.352;2023-01-23T20:16:35;20.00;36.50
45343;DHT22;31077;50.872;4.352;2023-01-23T20:19:05;20.40;36.00
45343;DHT22;31077;50.872;4.352;2023-01-23T20:21:31;20.70;35.60
45343;DHT22;31077;50.872;4.352;2023-01-23T20:23:57;21.00;35.10
45343;DHT22;31077;50.872;4.352;2023-01-23T20:26:23;21.20;34.60
45343;DHT22;31077;50.872;4.352;2023-01-23T20:28:49;21.40;34.30
45343;DHT22;31077;50.872;4.352;2023-01-23T20:31:18;21.60;34.00
45343;DHT22;31077;50.872;4.352;2023-01-23T20:33:44;21.70;33.70
45343;DHT22;31077;50.872;4.352;2023-01-23T20:36:10;21.90;33.40
45343;DHT22;31077;50.872;4.352;2023-01-23T20:38:37;22.00;33.30
45343;DHT22;31077;50.872;4.352;2023-01-23T20:41:09;22.10;33.10
45343;DHT22;31077;50.872;4.352;2023-01-23T20:43:35;22.20;32.90
45343;DHT22;31077;50.872;4.352;2023-01-23T20:46:04;22.30;32.80
45343;DHT22;31077;50.872;4.352;2023-01-23T20:48:38;22.30;32.70
45343;DHT22;31077;50.872;4.352;2023-01-23T20:51:05;22.40;32.60
45343;DHT22;31077;50.872;4.352;2023-01-23T20:53:31;22.40;32.50
45343;DHT22;31077;50.872;4.352;2023-01-23T20:56:07;22.40;32.40
45343;DHT22;31077;50.872;4.352;2023-01-23T20:58:34;22.50;32.30
45343;DHT22;31077;50.872;4.352;2023-01-23T21:01:21;22.50;32.20
45343;DHT22;31077;50.872;4.352;2023-01-23T21:03:47;22.50;32.20
45343;DHT22;31077;50.872;4.352;2023-01-23T21:06:15;22.60;32.20
45343;DHT22;31077;50.872;4.352;2023-01-23T21:08:41;22.60;32.10
45343;DHT22;31077;50.872;4.352;2023-01-23T21:11:09;22.60;32.00
45343;DHT22;31077;50.872;4.352;2023-01-23T21:13:36;22.70;32.00
45343;DHT22;31077;50.872;4.352;2023-01-23T21:16:05;22.70;32.00
45343;DHT22;31077;50.872;4.352;2023-01-23T21:18:34;22.70;32.00
45343;DHT22;31077;50.872;4.352;2023-01-23T21:21:05;22.70;31.90
45343;DHT22;31077;50.872;4.352;2023-01-23T21:23:31;22.70;31.90
45343;DHT22;31077;50.872;4.352;2023-01-23T21:26:02;22.70;31.90
45343;DHT22;31077;50.872;4.352;2023-01-23T21:28:30;22.70;31.90
45343;DHT22;31077;50.872;4.352;2023-01-23T21:30:56;22.70;31.90
45343;DHT22;31077;50.872;4.352;2023-01-23T21:33:22;22.70;31.90
45343;DHT22;31077;50.872;4.352;2023-01-23T21:35:52;22.70;31.90
45343;DHT22;31077;50.872;4.352;2023-01-23T21:38:18;22.80;31.90
45343;DHT22;31077;50.872;4.352;2023-01-23T21:40:44;22.70;31.80
45343;DHT22;31077;50.872;4.352;2023-01-23T21:43:10;22.70;31.80
45343;DHT22;31077;50.872;4.352;2023-01-23T21:45:36;22.70;31.80
45343;DHT22;31077;50.872;4.352;2023-01-23T21:48:01;22.70;31.90
45343;DHT22;31077;50.872;4.352;2023-01-23T21:50:27;22.70;31.90
45343;DHT22;31077;50.872;4.352;2023-01-23T21:52:53;22.80;32.20
45343;DHT22;31077;50.872;4.352;2023-01-23T21:55:19;22.70;32.20
45343;DHT22;31077;50.872;4.352;2023-01-23T21:57:44;22.80;32.90
45343;DHT22;31077;50.872;4.352;2023-01-23T22:00:10;22.70;32.40
45343;DHT22;31077;50.872;4.352;2023-01-23T22:02:55;22.80;32.30
45343;DHT22;31077;50.872;4.352;2023-01-23T22:05:21;22.80;32.30
45343;DHT22;31077;50.872;4.352;2023-01-23T22:07:46;22.80;32.40
45343;DHT22;31077;50.872;4.352;2023-01-23T22:10:13;22.70;32.30
45343;DHT22;31077;50.872;4.352;2023-01-23T22:12:39;22.80;32.40
45343;DHT22;31077;50.872;4.352;2023-01-23T22:15:05;22.70;32.30
45343;DHT22;31077;50.872;4.352;2023-01-23T22:17:31;22.80;32.40
45343;DHT22;31077;50.872;4.352;2023-01-23T22:19:57;22.80;32.30
45343;DHT22;31077;50.872;4.352;2023-01-23T22:22:23;22.80;32.30
45343;DHT22;31077;50.872;4.352;2023-01-23T22:24:49;22.80;32.20
45343;DHT22;31077;50.872;4.352;2023-01-23T22:27:15;22.80;32.10
45343;DHT22;31077;50.872;4.352;2023-01-23T22:29:41;22.80;32.10
45343;DHT22;31077;50.872;4.352;2023-01-23T22:32:08;22.80;32.10
45343;DHT22;31077;50.872;4.352;2023-01-23T22:34:33;22.80;32.20
45343;DHT22;31077;50.872;4.352;2023-01-23T22:36:59;22.80;32.00
45343;DHT22;31077;50.872;4.352;2023-01-23T22:39:25;22.90;32.00
45343;DHT22;31077;50.872;4.352;2023-01-23T22:41:50;22.80;31.80
45343;DHT22;31077;50.872;4.352;2023-01-23T22:44:16;22.80;31.80
45343;DHT22;31077;50.872;4.352;2023-01-23T22:46:42;22.80;31.80
45343;DHT22;31077;50.872;4.352;2023-01-23T22:49:08;24.30;32.50
45343;DHT22;31077;50.872;4.352;2023-01-23T22:51:35;22.80;31.70
45343;DHT22;31077;50.872;4.352;2023-01-23T22:54:01;22.80;31.70
45343;DHT22;31077;50.872;4.352;2023-01-23T22:56:28;22.80;31.70
45343;DHT22;31077;50.872;4.352;2023-01-23T22:58:55;22.80;31.60
45343;DHT22;31077;50.872;4.352;2023-01-23T23:01:21;22.80;31.50
45343;DHT22;31077;50.872;4.352;2023-01-23T23:03:47;22.80;31.50
45343;DHT22;31077;50.872;4.352;2023-01-23T23:06:15;22.80;31.40
45343;DHT22;31077;50.872;4.352;2023-01-23T23:08:42;22.80;31.50
45343;DHT22;31077;50.872;4.352;2023-01-23T23:11:14;22.80;31.40
45343;DHT22;31077;50.872;4.352;2023-01-23T23:13:41;22.80;31.40
45343;DHT22;31077;50.872;4.352;2023-01-23T23:16:19;22.80;31.40
45343;DHT22;31077;50.872;4.352;2023-01-23T23:18:47;22.80;31.30
45343;DHT22;31077;50.872;4.352;2023-01-23T23:21:16;22.80;31.30
45343;DHT22;31077;50.872;4.352;2023-01-23T23:23:42;22.80;31.20
45343;DHT22;31077;50.872;4.352;2023-01-23T23:26:08;22.80;31.20
45343;DHT22;31077;50.872;4.352;2023-01-23T23:28:36;22.80;31.20
45343;DHT22;31077;50.872;4.352;2023-01-23T23:31:02;22.80;31.10
45343;DHT22;31077;50.872;4.352;2023-01-23T23:33:28;22.80;31.20
45343;DHT22;31077;50.872;4.352;2023-01-23T23:35:54;22.80;31.20
45343;DHT22;31077;50.872;4.352;2023-01-23T23:38:19;22.80;31.20
45343;DHT22;31077;50.872;4.352;2023-01-23T23:40:55;22.80;31.10
45343;DHT22;31077;50.872;4.352;2023-01-23T23:43:21;22.80;31.10
45343;DHT22;31077;50.872;4.352;2023-01-23T23:46:07;22.80;31.00
45343;DHT22;31077;50.872;4.352;2023-01-23T23:48:35;22.80;31.00
45343;DHT22;31077;50.872;4.352;2023-01-23T23:51:06;22.80;31.00
45343;DHT22;31077;50.872;4.352;2023-01-23T23:53:32;22.80;31.00
45343;DHT22;31077;50.872;4.352;2023-01-23T23:55:58;22.80;31.00
45343;DHT22;31077;50.872;4.352;2023-01-23T23:58:24;22.80;31.00
